Bonaire, Bonaire

11:25 AM AST op 16 september 2014 (GMT -0400)
Nikiboko | Change Station
CLOSE
Current Station
Persoonlijk weerstation
Location: Bonaire, Bonaire
Geometrische hoogte: 33 ft
Nabije weerstations

Hoogte 33 ft 12.15 °N, 68.27 °W | Updated 18 minutes ago

Scattered Clouds
Licht bewolkt
88.5 °F
Voelt als 101 °F
N
5.0
Wind Variabel Wind van oost
Gusts 14.0 mijl/u

Vandaag
Hoog -- | Laag -- °F
--% Kans op neerslag
Gisteren
Hoog -- | Laag -- °F
Precip. -- inches
6:22 AM 6:33 PM
Laatste kwartier, 45% visible
Druk 29.98 inches
Zicht 6.2 mijlen
Wolken Licht bewolkt 2000 ft
Warmteindex 101 °F
Dauwpunt 77 °F
Vochtigheid 69%
Neerslag 0.00 inches
Dikte sneeuw Niet beschikbaar.
UV 12 van de 12
Pollen Niet beschikbaar.
Luchtkwaliteit Niet beschikbaar.
Flu Activity Niet beschikbaar.
METAR TNCC 161500Z 09011KT 9999 SCT020 31/25 Q1015 NOSIG

More Conditions Fewer Conditions

Druk 29.98 inches
Zicht 6.2 mijlen
Wolken Licht bewolkt 2000 ft
Warmteindex 101 °F
Dauwpunt 77 °F
Vochtigheid 69%
Neerslag 0.00 inches
Dikte sneeuw Niet beschikbaar.
UV 12 van de 12
Pollen Niet beschikbaar.
Luchtkwaliteit Niet beschikbaar.
Flu Activity Niet beschikbaar.
METAR TNCC 161500Z 09011KT 9999 SCT020 31/25 Q1015 NOSIG

More Conditions Fewer Conditions

10-Day Weather Forecast

Almanac

Astronomie

Sep. 16, 2014 Opkomst Ondergang
Werkelijke tijd 6:22 AM AST 6:33 PM AST
Burgerlijke schemering 6:01 AM AST 6:54 PM AST
Nautische schemering 5:36 AM AST 7:19 PM AST
Astronomische schemering 5:11 AM AST 7:43 PM AST
Maan 12:12 AM AST 1:10 PM AST
Golflengte van het zichtbare licht 12h 53m
Daglengte
12h 10m
Tomorrow will be 0m 41s shorter.
Laatste kwartier, 45% of the Moon is Illuminated
Vandaag
Laatste kwartier
sep 24
Nieuw
oktober 1
Eerste kwartier
oktober 8
Volle maan
oktober 15
Laatste kwartier

Extremen vandaag

Country Highs Country Lows

Community

WunderPhotos

Upload Photos

1,753,807 foto’s ge-upload!

Nearby

Luchtkwaliteit

Not available.

Dikte sneeuw

Not available.

Aardbevingen

Stad Distance Mag. Time & Date
No recent earthquake activity has been reported nearby.
Minimum magnitude displayed is 2.5.

Watertemperatuur langs de kust

Plaats Temperatuur
Geen meldingen van stations

Nabije weerstations